This is the latest recevied weather packets stored in our database for station/object KG7FOQ-13. If no packets are shown the sender has not sent any weather packets the latest 10 day(s).
| Time | Temp. | Humidity | Pressure | Rain* | Wind** | Luminosity | Snow |
|---|---|---|---|---|---|---|---|
| 1777874904 | 11.67° C | 46% | 1008.8 hPa | 0 mm | - | - | - |
| 1777874603 | 11.67° C | 45% | 1008.8 hPa | 0 mm | - | - | - |
| 1777874302 | 12.22° C | 43% | 1008.8 hPa | 0 mm | - | - | - |
| 1777874002 | 12.22° C | 41% | 1008.6 hPa | 0 mm | - | - | - |
| 1777873702 | 12.78° C | 40% | 1008.8 hPa | 0 mm | - | - | - |
| 1777873100 | 13.33° C | 39% | 1008.8 hPa | 0 mm | - | - | - |
| 1777872800 | 13.33° C | 38% | 1008.8 hPa | 0 mm | - | - | - |
| 1777872499 | 13.33° C | 39% | 1008.8 hPa | 0 mm | - | - | - |
| 1777872199 | 13.33° C | 38% | 1008.8 hPa | 0 mm | - | - | - |
| 1777871898 | 13.33° C | 38% | 1008.6 hPa | 0 mm | - | - | - |
| 1777871598 | 12.78° C | 39% | 1008.8 hPa | 0 mm | - | - | - |
| 1777871297 | 13.33° C | 38% | 1008.8 hPa | 0 mm | - | - | - |
| 1777870692 | 12.78° C | 40% | 1008.6 hPa | 0 mm | - | - | - |
| 1777870392 | 12.78° C | 40% | 1008.6 hPa | 0 mm | - | - | - |
| 1777870091 | 12.78° C | 40% | 1008.6 hPa | 0 mm | - | - | - |
| 1777869791 | 12.78° C | 41% | 1008.5 hPa | 0 mm | - | - | - |
| 1777869490 | 13.33° C | 39% | 1008.5 hPa | 0 mm | - | - | - |
| 1777869190 | 13.89° C | 39% | 1008.5 hPa | 0 mm | - | - | - |
| 1777868889 | 13.89° C | 37% | 1008.5 hPa | 0 mm | - | - | - |
| 1777868288 | 15.56° C | 35% | 1008.4 hPa | 0 mm | - | - | - |
| 1777867988 | 15° C | 35% | 1008.4 hPa | 0 mm | - | - | - |
| 1777867687 | 14.44° C | 40% | 1008.4 hPa | 0 mm | - | - | - |
| 1777867387 | 14.44° C | 39% | 1008.3 hPa | 0 mm | - | - | - |
| 1777867131 | 14.44° C | 41% | 1008.3 hPa | 0 mm | - | - | - |
| 1777867086 | 14.44° C | 41% | 1008.3 hPa | 0 mm | - | - | - |
* Rain latest hour (hover to see other rain measurements)
** Current wind speed in m/s (hover to see current wind gust speed)